Time;durP1;ratioP1;P1;durP2;ratioP2;P2;SDS_P1;SDS_P2;PMS_P1;PMS_P2;Temp;Humidity;BMP_temperature;BMP_pressure;BME280_temperature;BME280_humidity;BME280_pressure;Samples;Min_cycle;Max_cycle;Signal;HPM_P1;HPM_P2
2023/07/17 00:01:48;;;;;;;6.07;0.50;;;;;;;27.24;53.64;99522.44;7313320;19;129624;-41
2023/07/17 00:04:13;;;;;;;28.73;1.70;;;;;;;27.25;53.70;99516.97;7315406;19;128824;-40
2023/07/17 00:06:39;;;;;;;43.60;2.43;;;;;;;27.26;54.16;99512.50;7315052;19;129403;-41
2023/07/17 00:09:04;;;;;;;31.67;1.90;;;;;;;27.26;53.66;99520.41;7314978;19;130559;-39
2023/07/17 00:11:30;;;;;;;35.37;2.30;;;;;;;27.26;54.29;99513.31;7311938;19;131321;-40
2023/07/17 00:13:55;;;;;;;27.40;1.57;;;;;;;27.26;54.06;99510.69;7311559;19;129155;-42
2023/07/17 00:16:20;;;;;;;75.13;4.37;;;;;;;26.97;49.85;99515.03;7313291;19;129558;-39
2023/07/17 00:18:46;;;;;;;26.13;1.60;;;;;;;26.72;49.42;99509.13;7314388;19;130345;-40
2023/07/17 00:21:11;;;;;;;28.60;1.73;;;;;;;26.58;49.51;99502.75;7312272;19;130205;-41
2023/07/17 00:23:37;;;;;;;33.87;2.03;;;;;;;26.76;53.50;99491.94;7312247;19;129366;-40
2023/07/17 00:26:02;;;;;;;40.80;2.37;;;;;;;27.06;53.23;99506.06;7313459;19;129294;-40
2023/07/17 00:28:28;;;;;;;57.50;3.53;;;;;;;27.07;53.45;99491.88;7312152;19;131105;-39
2023/07/17 00:30:53;;;;;;;26.33;1.57;;;;;;;27.20;53.36;99507.94;7311324;19;129092;-42
2023/07/17 00:33:18;;;;;;;38.73;2.13;;;;;;;27.23;53.48;99497.00;7311428;19;129468;-41
2023/07/17 00:35:44;;;;;;;37.80;2.10;;;;;;;27.24;53.74;99501.31;7312120;19;129129;-40
2023/07/17 00:38:09;;;;;;;12.30;0.93;;;;;;;27.25;53.65;99495.03;7312203;19;129617;-41
2023/07/17 00:40:39;;;;;;;82.03;4.87;;;;;;;27.27;54.07;99490.38;7311222;19;129335;-42
2023/07/17 00:43:09;;;;;;;35.15;2.00;;;;;;;27.26;53.76;99486.09;7312101;19;129245;-40
2023/07/17 00:45:34;;;;;;;80.10;4.50;;;;;;;27.26;53.86;99489.56;7311657;19;130973;-39
2023/07/17 00:48:00;;;;;;;28.43;1.63;;;;;;;27.26;53.71;99489.56;7312209;19;130871;-43
2023/07/17 00:50:27;;;;;;;35.03;1.93;;;;;;;27.25;54.00;99495.03;7311309;19;129041;-42
2023/07/17 00:52:53;;;;;;;40.00;2.38;;;;;;;27.27;54.16;99498.31;7309597;19;129618;-42
2023/07/17 00:55:19;;;;;;;;;;;;;;;26.85;49.94;99490.88;7313476;19;129178;-40
2023/07/17 00:57:45;;;;;;;64.05;3.88;;;;;;;26.68;49.16;99492.81;7310644;19;129237;-40
2023/07/17 01:00:12;;;;;;;21.25;1.40;;;;;;;26.45;49.92;99470.84;7312491;19;128968;-42
2023/07/17 01:02:39;;;;;;;61.00;3.40;;;;;;;26.84;53.34;99468.94;7306147;19;129415;-38
2023/07/17 01:05:05;;;;;;;41.03;2.28;;;;;;;27.08;52.92;99488.22;7311705;19;130384;-39
2023/07/17 01:07:30;;;;;;;25.53;1.73;;;;;;;27.13;53.42;99485.88;7310706;19;129308;-36
2023/07/17 01:09:55;;;;;;;37.10;2.33;;;;;;;27.20;53.98;99486.81;7311481;19;129893;-38
2023/07/17 01:12:21;;;;;;;36.93;2.07;;;;;;;27.22;54.07;99492.75;7308998;19;128829;-39
2023/07/17 01:14:47;;;;;;;63.70;3.93;;;;;;;27.24;53.86;99490.75;7311570;19;129400;-42
2023/07/17 01:17:12;;;;;;;53.17;3.40;;;;;;;27.24;53.64;99486.28;7310937;19;131234;-39
2023/07/17 01:19:38;;;;;;;24.10;1.43;;;;;;;27.27;53.58;99487.75;7311796;19;129088;-38
2023/07/17 01:22:20;;;;;;;40.43;2.40;;;;;;;27.26;53.99;99488.72;7308250;19;129455;-42
2023/07/17 01:24:46;;;;;;;36.00;2.40;;;;;;;27.27;53.57;99482.47;7310925;19;129623;-40
2023/07/17 01:27:12;;;;;;;54.47;3.57;;;;;;;27.25;53.75;99484.47;7310347;19;130171;-40
2023/07/17 01:29:37;;;;;;;25.05;1.55;;;;;;;27.27;54.34;99485.13;7310952;19;130899;-41
2023/07/17 01:32:03;;;;;;;36.80;2.20;;;;;;;27.06;51.62;99487.56;7307721;19;130149;-43
2023/07/17 01:34:28;;;;;;;48.77;2.73;;;;;;;26.73;49.71;99490.47;7308331;19;130726;-40
2023/07/17 01:36:54;;;;;;;39.57;2.47;;;;;;;26.65;49.81;99500.22;7309405;19;129200;-41
2023/07/17 01:39:19;;;;;;;29.63;1.70;;;;;;;26.80;53.29;99493.22;7309869;19;129322;-39
2023/07/17 01:41:44;;;;;;;37.53;2.17;;;;;;;27.03;53.37;99498.50;7308422;19;129179;-40
2023/07/17 01:44:10;;;;;;;49.07;3.03;;;;;;;27.13;53.12;99505.19;7309525;19;128994;-41
2023/07/17 01:46:35;;;;;;;29.87;1.80;;;;;;;27.20;53.40;99510.56;7310639;19;129078;-40
2023/07/17 01:49:01;;;;;;;43.23;2.57;;;;;;;27.23;53.12;99510.22;7308790;19;129543;-40
2023/07/17 01:51:26;;;;;;;74.97;4.00;;;;;;;27.24;53.58;99514.50;7306547;19;129818;-40
2023/07/17 01:53:51;;;;;;;34.40;1.97;;;;;;;27.26;53.22;99509.84;7308769;19;129227;-42
2023/07/17 01:56:17;;;;;;;56.57;3.37;;;;;;;27.26;53.88;99513.31;7309476;19;129216;-39
2023/07/17 01:58:42;;;;;;;25.27;1.57;;;;;;;27.25;53.82;99518.78;7309897;19;128958;-42
2023/07/17 02:01:07;;;;;;;37.50;2.40;;;;;;;27.28;53.51;99529.00;7307354;19;128978;-40
2023/07/17 02:03:34;;;;;;;27.00;1.60;;;;;;;27.28;53.66;99529.00;7309985;19;129300;-42
2023/07/17 02:05:59;;;;;;;26.75;1.55;;;;;;;27.28;53.85;99526.38;7308633;19;131129;-40
2023/07/17 02:08:25;;;;;;;55.77;3.47;;;;;;;27.28;54.02;99518.44;7307660;19;129393;-43
2023/07/17 02:10:51;;;;;;;37.93;2.10;;;;;;;26.74;50.84;99513.22;7308730;19;129661;-34
2023/07/17 02:13:17;;;;;;;27.02;1.55;;;;;;;26.62;49.77;99514.59;7308053;19;130101;-40
2023/07/17 02:15:44;;;;;;;26.00;1.53;;;;;;;26.56;50.59;99510.00;7315786;19;130134;-39
2023/07/17 02:18:09;;;;;;;13.35;0.98;;;;;;;26.92;53.34;99519.03;7315618;19;129103;-37
2023/07/17 02:20:34;;;;;;;49.97;2.93;;;;;;;27.09;53.31;99529.47;7313727;19;129310;-37
2023/07/17 02:23:01;;;;;;;30.40;1.87;;;;;;;27.16;53.63;99531.22;7315696;19;129021;-41
2023/07/17 02:25:26;;;;;;;26.05;1.98;;;;;;;27.11;53.69;99516.91;7315280;19;130549;-39
2023/07/17 02:27:52;;;;;;;32.13;1.87;;;;;;;27.23;54.03;99544.53;7314982;19;129704;-39
2023/07/17 02:30:17;;;;;;;33.27;1.90;;;;;;;27.25;54.03;99535.44;7315944;19;129067;-42
2023/07/17 02:32:42;;;;;;;60.40;3.80;;;;;;;27.26;53.79;99549.44;7314614;19;130117;-42
2023/07/17 02:35:08;;;;;;;30.27;1.80;;;;;;;27.28;53.86;99547.50;7315702;19;129872;-41
2023/07/17 02:37:34;;;;;;;36.23;2.20;;;;;;;27.20;53.99;99542.25;7315462;19;129127;-39
2023/07/17 02:40:00;;;;;;;30.77;1.83;;;;;;;27.27;54.17;99551.09;7316170;19;129900;-42
2023/07/17 02:42:25;;;;;;;30.00;1.73;;;;;;;27.29;53.75;99541.22;7313770;19;129505;-40
2023/07/17 02:44:50;;;;;;;61.90;3.63;;;;;;;27.28;54.00;99543.03;7314525;19;130567;-38
2023/07/17 02:47:17;;;;;;;47.03;2.63;;;;;;;27.29;54.06;99541.22;7314577;19;129342;-41
2023/07/17 02:49:43;;;;;;;31.60;1.83;;;;;;;26.81;50.35;99556.38;7315406;19;128997;-40
2023/07/17 02:52:09;;;;;;;50.38;2.88;;;;;;;26.62;49.63;99564.69;7312233;19;129638;-40
2023/07/17 02:54:39;;;;;;;8.30;0.70;;;;;;;26.61;51.75;99563.03;7312841;19;130329;-40
2023/07/17 02:57:05;;;;;;;84.05;5.22;;;;;;;26.97;53.07;99552.81;7313482;19;129193;-41
2023/07/17 02:59:31;;;;;;;29.38;1.70;;;;;;;27.12;53.50;99555.50;7314597;19;129037;-38
2023/07/17 03:01:57;;;;;;;10.27;0.80;;;;;;;27.18;53.63;99545.06;7312802;19;130202;-40
2023/07/17 03:04:23;;;;;;;22.90;1.38;;;;;;;27.23;53.67;99531.34;7313686;19;131469;-39
2023/07/17 03:06:48;;;;;;;36.07;2.03;;;;;;;27.25;53.90;99539.91;7314712;19;128939;-42
2023/07/17 03:09:14;;;;;;;56.40;3.43;;;;;;;27.27;54.07;99543.19;7314500;19;129416;-40
2023/07/17 03:11:39;;;;;;;25.67;1.60;;;;;;;27.26;53.79;99541.53;7313149;19;130240;-42
2023/07/17 03:14:04;;;;;;;21.67;1.33;;;;;;;27.26;54.09;99555.56;7312106;19;130310;-42
2023/07/17 03:16:30;;;;;;;57.90;3.37;;;;;;;27.29;54.02;99559.72;7313668;19;128965;-41
2023/07/17 03:18:55;;;;;;;25.67;1.50;;;;;;;27.29;53.96;99547.31;7314342;19;129510;-39
2023/07/17 03:21:22;;;;;;;50.57;3.17;;;;;;;27.30;53.75;99550.78;7311335;19;130494;-40
2023/07/17 03:23:48;;;;;;;25.08;1.52;;;;;;;27.28;54.25;99552.78;7314653;19;130365;-41
2023/07/17 03:26:13;;;;;;;42.00;2.33;;;;;;;26.94;50.33;99553.97;7313491;19;130428;-39
2023/07/17 03:28:38;;;;;;;58.00;3.43;;;;;;;26.69;50.01;99544.56;7312614;19;129256;-41
2023/07/17 03:31:04;;;;;;;31.77;1.87;;;;;;;26.57;49.62;99545.94;7312470;19;131404;-38
2023/07/17 03:33:32;;;;;;;57.17;3.17;;;;;;;26.84;53.87;99558.66;7311157;19;129383;-39
2023/07/17 03:35:58;;;;;;;34.92;2.05;;;;;;;27.06;53.45;99556.19;7313726;19;128988;-38
2023/07/17 03:38:23;;;;;;;4.97;0.60;;;;;;;27.16;53.85;99552.34;7314109;19;128870;-42
2023/07/17 03:40:48;;;;;;;62.27;3.83;;;;;;;27.21;53.26;99560.53;7311625;19;129358;-38
2023/07/17 03:43:13;;;;;;;29.60;1.87;;;;;;;27.24;53.71;99562.03;7313930;19;130408;-42
2023/07/17 03:45:39;;;;;;;38.13;2.27;;;;;;;27.27;54.11;99559.03;7314212;19;129000;-42
2023/07/17 03:48:04;;;;;;;27.87;1.70;;;;;;;27.27;53.79;99559.81;7312374;19;131326;-39
2023/07/17 03:50:31;;;;;;;28.77;1.60;;;;;;;27.27;54.13;99559.81;7313735;19;129135;-41
2023/07/17 03:52:57;;;;;;;87.50;4.85;;;;;;;27.28;54.25;99560.69;7312511;19;131492;-38
2023/07/17 03:55:22;;;;;;;31.97;1.73;;;;;;;27.29;54.15;99567.63;7314397;19;129152;-38
2023/07/17 03:57:47;;;;;;;11.23;0.80;;;;;;;27.29;53.94;99568.44;7313547;19;129199;-41
2023/07/17 04:00:13;;;;;;;47.90;2.97;;;;;;;27.28;54.26;99568.63;7312089;19;130731;-39
2023/07/17 04:02:40;;;;;;;49.17;2.90;;;;;;;27.29;54.06;99567.63;7310493;19;130396;-42
2023/07/17 04:05:06;;;;;;;46.55;2.78;;;;;;;26.76;49.97;99556.06;7312284;19;128646;-38
2023/07/17 04:07:31;;;;;;;33.13;1.93;;;;;;;26.61;49.70;99557.75;7313257;19;129481;-41
2023/07/17 04:09:57;;;;;;;27.17;1.60;;;;;;;26.62;53.10;99554.16;7313270;19;129049;-39
2023/07/17 04:12:22;;;;;;;82.47;4.80;;;;;;;26.90;53.35;99542.16;7309599;19;130577;-43
2023/07/17 04:14:48;;;;;;;28.10;1.60;;;;;;;27.11;53.30;99548.56;7311715;19;129056;-36
2023/07/17 04:17:13;;;;;;;50.87;3.27;;;;;;;27.20;53.42;99544.88;7312205;19;129445;-37
2023/07/17 04:19:38;;;;;;;31.03;1.83;;;;;;;27.21;53.67;99542.06;7312979;19;131376;-41
2023/07/17 04:22:04;;;;;;;42.60;2.33;;;;;;;27.25;53.28;99550.47;7310337;19;130341;-42
2023/07/17 04:24:29;;;;;;;64.90;3.83;;;;;;;27.26;53.35;99563.47;7312812;19;131894;-39
2023/07/17 04:26:55;;;;;;;19.73;1.33;;;;;;;27.28;53.58;99565.97;7313558;19;130479;-40
2023/07/17 04:29:22;;;;;;;32.67;1.80;;;;;;;27.28;53.98;99558.88;7311993;19;128911;-41
2023/07/17 04:31:48;;;;;;;48.35;2.70;;;;;;;27.27;53.91;99565.09;7308886;19;130741;-38
2023/07/17 04:34:13;;;;;;;26.73;1.60;;;;;;;27.23;53.87;99549.81;7310907;19;129564;-41
2023/07/17 04:36:39;;;;;;;60.40;3.70;;;;;;;27.27;53.99;99559.81;7308374;19;129125;-42
2023/07/17 04:39:05;;;;;;;33.70;2.03;;;;;;;27.29;53.60;99568.44;7311241;19;129053;-40
2023/07/17 04:41:30;;;;;;;24.13;1.40;;;;;;;27.11;50.84;99569.69;7309754;19;130330;-40
2023/07/17 04:43:56;;;;;;;21.60;1.40;;;;;;;26.79;50.47;99582.09;7311899;19;129141;-36
2023/07/17 04:46:21;;;;;;;34.87;2.00;;;;;;;26.64;49.56;99573.25;7311743;19;128926;-43
2023/07/17 04:48:46;;;;;;;79.70;4.37;;;;;;;26.78;52.95;99569.91;7310532;19;130895;-41
2023/07/17 04:51:12;;;;;;;31.13;1.90;;;;;;;27.02;52.93;99565.47;7310794;19;130291;-41
2023/07/17 04:53:37;;;;;;;25.43;1.47;;;;;;;27.15;53.07;99563.91;7310481;19;129040;-38
2023/07/17 04:56:03;;;;;;;25.57;1.50;;;;;;;27.20;53.49;99558.09;7310573;19;128874;-39
2023/07/17 04:58:32;;;;;;;44.47;2.40;;;;;;;27.23;53.53;99560.38;7311125;19;129363;-39
2023/07/17 05:01:04;;;;;;;59.63;3.55;;;;;;;27.15;53.66;99563.06;7308746;19;129275;-38
2023/07/17 05:03:30;;;;;;;33.00;1.90;;;;;;;27.27;54.15;99596.00;7311421;19;131409;-40
2023/07/17 05:05:55;;;;;;;61.85;3.78;;;;;;;27.28;53.84;99592.38;7310015;19;129137;-42
2023/07/17 05:08:22;;;;;;;30.67;1.67;;;;;;;27.28;53.69;99592.38;7309870;19;129571;-39
2023/07/17 05:10:58;;;;;;;50.90;2.95;;;;;;;27.30;53.83;99591.22;7309048;19;129237;-42
2023/07/17 05:13:24;;;;;;;49.83;2.83;;;;;;;27.29;54.02;99594.03;7310095;19;128939;-37
2023/07/17 05:15:50;;;;;;;36.37;2.07;;;;;;;27.28;54.02;99590.56;7311824;19;129457;-42
2023/07/17 05:18:15;;;;;;;25.17;1.52;;;;;;;27.28;54.44;99613.50;7309769;19;132250;-43
2023/07/17 05:20:49;;;;;;;43.30;2.33;;;;;;;26.79;51.11;99608.47;7310085;19;130267;-41
2023/07/17 05:23:15;;;;;;;29.67;1.77;;;;;;;26.62;49.52;99593.72;7311563;19;129360;-42
2023/07/17 05:25:50;;;;;;;31.27;1.83;;;;;;;26.70;52.71;99596.34;7310936;19;129028;-42
2023/07/17 05:28:15;;;;;;;29.25;1.88;;;;;;;27.02;53.53;99592.69;7307388;19;130721;-42
2023/07/17 05:30:40;;;;;;;41.00;2.27;;;;;;;27.14;53.02;99595.75;7309006;19;130067;-42
2023/07/17 05:33:06;;;;;;;60.00;3.60;;;;;;;27.19;53.39;99604.78;7310237;19;129603;-40
2023/07/17 05:35:31;;;;;;;26.27;1.57;;;;;;;27.23;53.93;99606.06;7310424;19;131781;-43
2023/07/17 05:37:56;;;;;;;7.13;0.63;;;;;;;27.25;54.15;99608.53;7309564;19;130201;-42
2023/07/17 05:40:22;;;;;;;61.50;3.40;;;;;;;27.27;54.00;99606.56;7307999;19;129091;-38
2023/07/17 05:42:47;;;;;;;57.17;3.43;;;;;;;27.28;54.15;99609.03;7309236;19;129559;-38
2023/07/17 05:45:12;;;;;;;52.27;3.23;;;;;;;27.28;54.00;99614.31;7308958;19;128907;-42
2023/07/17 05:47:38;;;;;;;28.23;1.63;;;;;;;27.29;53.58;99615.16;7309022;19;129451;-39
2023/07/17 05:50:04;;;;;;;50.03;2.83;;;;;;;27.29;53.94;99612.53;7316518;19;130525;-41
2023/07/17 05:52:30;;;;;;;23.55;1.50;;;;;;;27.29;53.87;99623.06;7313392;19;129721;-40
2023/07/17 05:54:55;;;;;;;35.47;2.20;;;;;;;27.28;54.04;99624.06;7314868;19;129268;-41
2023/07/17 05:57:21;;;;;;;49.30;3.13;;;;;;;27.03;51.43;99620.72;7315014;19;129482;-39
2023/07/17 05:59:46;;;;;;;39.43;2.37;;;;;;;26.69;49.72;99621.06;7316432;19;130311;-41
2023/07/17 06:02:11;;;;;;;30.10;1.73;;;;;;;26.65;49.99;99626.81;7314055;19;129382;-40
2023/07/17 06:04:37;;;;;;;64.13;3.53;;;;;;;26.84;53.08;99621.97;7314752;19;129292;-38
2023/07/17 06:07:02;;;;;;;53.13;3.20;;;;;;;27.05;53.36;99616.09;7317061;19;131076;-39
2023/07/17 06:09:29;;;;;;;69.35;4.00;;;;;;;27.13;53.86;99607.28;7315433;19;130744;-39
2023/07/17 06:11:54;;;;;;;23.90;1.43;;;;;;;27.21;53.77;99613.34;7315613;19;128846;-36
2023/07/17 06:14:20;;;;;;;35.83;2.17;;;;;;;27.24;53.48;99612.19;7314804;19;129271;-40
2023/07/17 06:16:45;;;;;;;36.07;1.97;;;;;;;27.25;53.21;99619.09;7317422;19;131796;-43
2023/07/17 06:19:13;;;;;;;38.35;2.13;;;;;;;27.26;53.79;99620.72;7314241;19;129328;-40
2023/07/17 06:21:39;;;;;;;27.77;1.80;;;;;;;27.18;53.78;99599.66;7314707;19;128993;-43
2023/07/17 06:24:07;;;;;;;33.77;1.93;;;;;;;27.28;53.91;99618.78;7316932;19;129903;-41
2023/07/17 06:26:33;;;;;;;54.80;3.28;;;;;;;27.27;53.76;99617.13;7313825;19;130146;-41
2023/07/17 06:28:58;;;;;;;37.80;2.13;;;;;;;27.28;53.64;99610.84;7316335;19;130413;-41
2023/07/17 06:31:24;;;;;;;24.33;1.40;;;;;;;27.28;54.41;99613.50;7315113;19;129889;-42
2023/07/17 06:33:50;;;;;;;27.63;1.53;;;;;;;27.26;53.05;99604.88;7315796;19;130791;-37
2023/07/17 06:36:15;;;;;;;42.87;2.47;;;;;;;26.76;49.87;99610.63;7316746;19;128979;-38
2023/07/17 06:38:40;;;;;;;65.73;4.07;;;;;;;26.62;49.97;99606.06;7315326;19;129588;-40
2023/07/17 06:41:06;;;;;;;25.37;1.50;;;;;;;26.72;52.18;99607.53;7315766;19;129313;-39
2023/07/17 06:43:31;;;;;;;16.77;1.17;;;;;;;27.01;53.26;99600.78;7315485;19;129255;-38
2023/07/17 06:45:57;;;;;;;35.67;2.07;;;;;;;27.05;53.39;99586.25;7316174;19;129774;-42
2023/07/17 06:48:22;;;;;;;33.57;2.00;;;;;;;27.17;53.85;99600.69;7315063;19;132902;-39
2023/07/17 06:50:47;;;;;;;60.97;3.67;;;;;;;27.21;53.68;99612.50;7314626;19;130882;-38
2023/07/17 06:53:13;;;;;;;34.67;2.00;;;;;;;27.24;54.03;99610.34;7316012;19;130225;-41
2023/07/17 06:55:38;;;;;;;58.40;3.10;;;;;;;27.26;54.05;99610.16;7314942;19;131102;-42
2023/07/17 06:58:03;;;;;;;5.70;0.60;;;;;;;27.26;54.12;99615.44;7315520;19;129796;-41
2023/07/17 07:00:29;;;;;;;40.27;2.27;;;;;;;27.28;53.85;99619.59;7312790;19;130179;-40
2023/07/17 07:02:54;;;;;;;58.93;3.57;;;;;;;27.29;53.70;99615.16;7314602;19;129841;-38
2023/07/17 07:05:20;;;;;;;58.57;3.10;;;;;;;27.28;53.66;99618.78;7315590;19;130121;-38
2023/07/17 07:07:45;;;;;;;37.63;2.20;;;;;;;27.28;53.66;99610.84;7314616;19;129453;-40
2023/07/17 07:10:10;;;;;;;22.17;1.27;;;;;;;27.20;53.88;99606.44;7314537;19;128740;-41
2023/07/17 07:12:36;;;;;;;29.70;1.77;;;;;;;27.06;50.56;99614.25;7312030;19;129203;-40
2023/07/17 07:15:01;;;;;;;61.03;3.53;;;;;;;26.73;50.01;99610.97;7312057;19;129193;-42
2023/07/17 07:17:27;;;;;;;23.47;1.43;;;;;;;26.62;49.54;99617.44;7314892;19;130724;-41
2023/07/17 07:19:52;;;;;;;34.07;2.17;;;;;;;26.80;53.17;99614.59;7313926;19;129261;-39
2023/07/17 07:22:18;;;;;;;40.13;2.23;;;;;;;27.03;53.18;99612.81;7312870;19;129074;-38
2023/07/17 07:24:46;;;;;;;29.93;1.80;;;;;;;27.13;53.40;99616.03;7314816;19;129079;-41
2023/07/17 07:27:11;;;;;;;80.35;4.95;;;;;;;27.18;53.10;99621.63;7311317;19;130573;-40
2023/07/17 07:29:37;;;;;;;42.53;2.30;;;;;;;27.12;53.83;99603.84;7313856;19;129359;-43
2023/07/17 07:32:02;;;;;;;77.23;4.43;;;;;;;27.23;54.05;99616.63;7310710;19;129340;-42
2023/07/17 07:34:28;;;;;;;23.63;1.40;;;;;;;27.25;53.26;99619.94;7313038;19;129379;-42
2023/07/17 07:36:53;;;;;;;30.37;1.67;;;;;;;27.26;53.69;99616.28;7313902;19;130315;-42
2023/07/17 07:39:18;;;;;;;31.70;1.90;;;;;;;27.27;53.83;99622.38;7311828;19;128845;-39
2023/07/17 07:41:45;;;;;;;20.27;1.27;;;;;;;27.25;53.92;99619.94;7311635;19;129047;-42
2023/07/17 07:44:10;;;;;;;61.40;3.67;;;;;;;27.27;53.71;99617.13;7312834;19;130413;-40
2023/07/17 07:46:35;;;;;;;24.60;1.47;;;;;;;27.26;53.95;99616.28;7313459;19;129192;-41
2023/07/17 07:49:01;;;;;;;16.50;1.07;;;;;;;27.26;53.85;99618.09;7312607;19;129187;-39
2023/07/17 07:51:26;;;;;;;40.23;2.33;;;;;;;26.82;50.07;99617.88;7311673;19;130286;-41
2023/07/17 07:53:52;;;;;;;34.10;1.90;;;;;;;26.66;49.61;99624.03;7313343;19;129889;-42
2023/07/17 07:56:17;;;;;;;67.23;4.03;;;;;;;26.66;52.15;99628.47;7312872;19;130407;-37
2023/07/17 07:58:42;;;;;;;34.47;2.00;;;;;;;26.89;53.66;99617.00;7312939;19;129828;-41
2023/07/17 08:01:08;;;;;;;79.23;4.30;;;;;;;27.10;53.29;99629.59;7312418;19;130212;-41
2023/07/17 08:03:34;;;;;;;23.53;1.50;;;;;;;27.15;53.33;99634.34;7313973;19;129432;-37
2023/07/17 08:05:59;;;;;;;25.60;1.50;;;;;;;27.13;53.57;99625.78;7313274;19;130189;-38
2023/07/17 08:08:25;;;;;;;34.40;2.10;;;;;;;27.21;53.79;99634.47;7312097;19;129949;-44
2023/07/17 08:10:53;;;;;;;32.93;2.00;;;;;;;27.24;54.02;99643.88;7311844;19;129691;-43
2023/07/17 08:13:18;;;;;;;56.30;3.42;;;;;;;27.23;53.65;99631.66;7312000;19;129645;-39
2023/07/17 08:15:44;;;;;;;20.37;1.37;;;;;;;27.26;53.73;99636.56;7310953;19;129971;-42
2023/07/17 08:18:09;;;;;;;37.43;2.17;;;;;;;27.26;53.81;99631.28;7312991;19;129462;-39
2023/07/17 08:20:34;;;;;;;27.10;1.67;;;;;;;27.26;54.25;99641.84;7312881;19;129887;-41
2023/07/17 08:23:00;;;;;;;25.70;1.57;;;;;;;27.17;54.14;99632.34;7312639;19;130998;-42
2023/07/17 08:25:25;;;;;;;72.77;4.50;;;;;;;27.25;54.16;99640.22;7310014;19;129813;-41
2023/07/17 08:27:51;;;;;;;44.73;2.50;;;;;;;26.92;50.75;99635.13;7312599;19;128865;-42
2023/07/17 08:30:17;;;;;;;17.73;1.17;;;;;;;26.69;49.93;99644.78;7312872;19;129167;-39
2023/07/17 08:32:42;;;;;;;27.67;1.70;;;;;;;26.57;49.53;99635.59;7309764;19;131809;-41
2023/07/17 08:35:08;;;;;;;26.23;1.60;;;;;;;26.80;53.29;99639.16;7311172;19;130165;-42
2023/07/17 08:37:33;;;;;;;82.53;4.87;;;;;;;27.04;53.78;99632.91;7310383;19;129344;-39
2023/07/17 08:39:59;;;;;;;22.17;1.27;;;;;;;27.12;53.39;99639.97;7312500;19;129221;-40
2023/07/17 08:42:24;;;;;;;50.20;2.93;;;;;;;27.17;53.63;99640.28;7308912;19;129113;-39
2023/07/17 08:44:51;;;;;;;7.30;0.57;;;;;;;27.18;53.53;99634.00;7312205;19;129627;-40
2023/07/17 08:47:17;;;;;;;52.60;3.10;;;;;;;27.22;53.64;99640.56;7311483;19;128988;-39
2023/07/17 08:49:44;;;;;;;27.00;1.95;;;;;;;27.22;53.34;99641.38;7311848;19;130128;-37
2023/07/17 08:52:11;;;;;;;29.77;1.83;;;;;;;27.23;53.71;99637.75;7309680;19;129633;-34
2023/07/17 08:54:36;;;;;;;66.97;4.05;;;;;;;27.25;53.76;99656.88;7309856;19;129184;-34
2023/07/17 08:57:03;;;;;;;51.67;3.13;;;;;;;27.25;53.45;99646.34;7312396;19;129553;-30
2023/07/17 08:59:30;;;;;;;34.50;2.30;;;;;;;27.23;53.92;99626.38;7312911;19;129262;-34
2023/07/17 09:01:55;;;;;;;50.45;2.72;;;;;;;27.17;54.03;99627.06;7310654;19;130480;-36
2023/07/17 09:04:21;;;;;;;28.47;1.73;;;;;;;27.24;54.22;99643.88;7311742;19;130345;-36
2023/07/17 09:06:46;;;;;;;49.00;2.93;;;;;;;26.71;50.28;99642.81;7312311;19;129166;-32
2023/07/17 09:09:12;;;;;;;30.07;1.80;;;;;;;26.61;49.47;99644.81;7310675;19;130175;-36
2023/07/17 09:11:37;;;;;;;59.00;3.47;;;;;;;26.69;53.00;99639.53;7309611;19;130163;-35
2023/07/17 09:14:04;;;;;;;34.00;2.10;;;;;;;26.98;52.88;99638.06;7311594;19;130329;-39
2023/07/17 09:16:29;;;;;;;;;;;;;;;27.19;53.37;99640.94;7312041;19;130493;-37
2023/07/17 09:18:55;;;;;;;30.93;1.90;;;;;;;27.17;53.49;99638.47;7312856;19;129386;-32
2023/07/17 09:21:22;;;;;;;30.20;1.87;;;;;;;27.19;53.98;99627.72;7309959;19;129263;-33
2023/07/17 09:23:51;;;;;;;70.57;4.25;;;;;;;27.21;53.51;99644.19;7313337;19;131294;-33
2023/07/17 09:26:34;;;;;;;27.65;1.67;;;;;;;27.24;53.79;99636.75;7318316;19;128776;-34
2023/07/17 09:29:00;;;;;;;28.35;1.63;;;;;;;27.22;53.75;99637.94;7317719;19;131032;-34
2023/07/17 09:31:27;;;;;;;29.70;1.77;;;;;;;27.23;53.94;99623.72;7317062;19;129317;-30
2023/07/17 09:33:57;;;;;;;61.50;3.83;;;;;;;27.24;54.58;99638.59;7315665;19;130226;-32
2023/07/17 09:36:23;;;;;;;45.33;2.58;;;;;;;27.23;54.21;99632.47;7316623;19;129347;-38
2023/07/17 09:38:52;;;;;;;68.70;4.20;;;;;;;27.24;54.00;99618.25;7316517;19;129841;-34
2023/07/17 09:41:23;;;;;;;26.30;1.65;;;;;;;27.25;54.31;99619.09;7316618;19;130635;-31
2023/07/17 09:44:05;;;;;;;58.97;3.67;;;;;;;26.73;50.78;99598.63;7317229;19;130570;-30
2023/07/17 09:46:36;;;;;;;14.73;1.05;;;;;;;26.62;49.81;99617.44;7315920;19;130311;-33
2023/07/17 09:49:03;;;;;;;56.38;3.55;;;;;;;26.69;52.32;99623.69;7315844;19;130707;-31
2023/07/17 09:51:29;;;;;;;46.97;2.80;;;;;;;26.93;53.40;99610.41;7316573;19;130175;-35
2023/07/17 09:53:57;;;;;;;53.07;3.50;;;;;;;26.97;53.33;99589.75;7316332;19;129563;-33
2023/07/17 09:56:26;;;;;;;27.63;1.73;;;;;;;27.12;53.67;99621.50;7317435;19;129239;-39
2023/07/17 09:58:55;;;;;;;50.88;3.35;;;;;;;27.16;53.54;99617.50;7315037;19;128891;-35
2023/07/17 10:01:25;;;;;;;50.70;2.85;;;;;;;27.19;53.72;99612.69;7314936;19;129776;-33
2023/07/17 10:03:50;;;;;;;33.40;2.17;;;;;;;27.20;54.09;99613.53;7316823;19;130677;-37
2023/07/17 10:06:18;;;;;;;12.10;1.03;;;;;;;27.21;53.87;99617.78;7317167;19;128709;-30
2023/07/17 10:08:50;;;;;;;34.72;2.03;;;;;;;27.23;54.40;99615.81;7316051;19;129352;-32
2023/07/17 10:11:17;;;;;;;44.67;2.67;;;;;;;27.18;53.85;99611.06;7315517;19;130180;-35
2023/07/17 10:13:47;;;;;;;37.17;2.25;;;;;;;27.24;54.17;99622.75;7316442;19;130938;-30
2023/07/17 10:16:17;;;;;;;42.42;2.65;;;;;;;27.22;53.94;99620.25;7317446;19;129922;-37
2023/07/17 10:18:48;;;;;;;28.38;1.80;;;;;;;27.22;54.41;99620.25;7316350;19;129123;-37
2023/07/17 10:21:15;;;;;;;45.15;2.88;;;;;;;26.73;49.92;99606.53;7313958;19;130266;-39
2023/07/17 10:23:43;;;;;;;50.03;2.95;;;;;;;26.57;50.23;99603.13;7315735;19;130335;-37
2023/07/17 10:26:10;;;;;;;49.83;3.13;;;;;;;26.56;50.76;99612.84;7316172;19;129358;-31
2023/07/17 10:28:35;;;;;;;;;;;;;;;27.01;53.94;99606.06;7315052;19;129418;-36
2023/07/17 10:31:07;;;;;;;40.35;2.42;;;;;;;27.08;53.11;99612.28;7314981;19;130948;-37
2023/07/17 10:33:37;;;;;;;42.33;2.45;;;;;;;27.13;53.49;99610.75;7317243;19;130308;-36
2023/07/17 10:36:03;;;;;;;38.78;2.47;;;;;;;27.16;53.63;99605.13;7313153;19;128894;-33
2023/07/17 10:38:28;;;;;;;30.93;1.93;;;;;;;27.20;53.25;99605.59;7315067;19;129472;-31
2023/07/17 10:41:02;;;;;;;11.83;1.10;;;;;;;27.23;54.38;99599.97;7314252;19;130977;-33
2023/07/17 10:43:28;;;;;;;32.60;1.98;;;;;;;27.21;53.75;99596.69;7315005;19;129376;-34
2023/07/17 10:45:53;;;;;;;42.10;2.40;;;;;;;27.22;53.54;99595.69;7316392;19;130162;-35
2023/07/17 10:48:18;;;;;;;75.90;4.53;;;;;;;27.23;53.81;99594.69;7314947;19;131358;-32
2023/07/17 10:50:49;;;;;;;21.37;1.63;;;;;;;27.22;54.05;99582.50;7313724;19;130854;-34
2023/07/17 10:53:15;;;;;;;83.60;4.85;;;;;;;27.22;53.69;99587.78;7314571;19;131043;-32
2023/07/17 10:55:40;;;;;;;23.77;1.60;;;;;;;27.24;54.13;99596.34;7313409;19;129238;-37
2023/07/17 10:58:06;;;;;;;24.57;1.63;;;;;;;27.14;51.42;99585.19;7315985;19;129337;-35
2023/07/17 11:00:33;;;;;;;14.93;0.97;;;;;;;26.73;49.80;99577.53;7313538;19;130018;-34
2023/07/17 11:02:59;;;;;;;54.72;3.38;;;;;;;26.61;49.83;99578.06;7314894;19;130510;-33
2023/07/17 11:05:24;;;;;;;73.73;4.53;;;;;;;26.77;52.97;99585.91;7315595;19;129337;-38
2023/07/17 11:07:50;;;;;;;28.57;1.70;;;;;;;27.00;53.21;99583.28;7315382;19;130620;-39
2023/07/17 11:10:16;;;;;;;31.00;1.87;;;;;;;27.09;53.85;99587.53;7314065;19;129868;-40
2023/07/17 11:12:42;;;;;;;38.57;2.20;;;;;;;27.13;53.12;99580.91;7312473;19;129531;-40
2023/07/17 11:15:15;;;;;;;32.92;2.03;;;;;;;27.18;53.80;99586.47;7314438;19;129421;-42